Time;durP1;ratioP1;P1;durP2;ratioP2;P2;SDS_P1;SDS_P2;PMS_P1;PMS_P2;Temp;Humidity;BMP_temperature;BMP_pressure;BME280_temperature;BME280_humidity;BME280_pressure;Samples;Min_cycle;Max_cycle;Signal;HPM_P1;HPM_P2
2021/07/08 00:01:51;;;;;;;17.83;16.05;;;;;;;;;;5013922;28;20026;-61
2021/07/08 00:04:17;;;;;;;19.63;17.58;;;;;;;;;;5013581;28;20018;-62
2021/07/08 00:06:43;;;;;;;18.70;16.90;;;;;;;;;;5013707;28;20026;-64
2021/07/08 00:09:09;;;;;;;19.48;17.42;;;;;;;;;;5013565;28;20033;-65
2021/07/08 00:11:36;;;;;;;18.88;17.17;;;;;;;;;;5013555;28;20487;-62
2021/07/08 00:14:02;;;;;;;18.45;16.55;;;;;;;;;;5013667;28;20423;-61
2021/07/08 00:16:29;;;;;;;18.80;16.85;;;;;;;;;;5013578;28;20040;-62
2021/07/08 00:18:55;;;;;;;18.20;16.50;;;;;;;;;;5013041;28;20029;-62
2021/07/08 00:21:21;;;;;;;19.13;17.33;;;;;;;;;;5013161;28;20061;-62
2021/07/08 00:23:48;;;;;;;19.55;17.73;;;;;;;;;;5013339;28;20472;-62
2021/07/08 00:26:14;;;;;;;18.60;16.70;;;;;;;;;;5013306;28;20018;-64
2021/07/08 00:28:40;;;;;;;18.90;17.20;;;;;;;;;;5013265;28;20566;-62
2021/07/08 00:31:06;;;;;;;18.70;16.85;;;;;;;;;;5013394;28;20048;-61
2021/07/08 00:33:32;;;;;;;19.30;16.95;;;;;;;;;;5013270;28;20037;-61
2021/07/08 00:35:59;;;;;;;17.63;15.82;;;;;;;;;;5013183;28;20061;-63
2021/07/08 00:38:25;;;;;;;18.88;17.05;;;;;;;;;;5013122;28;20102;-62
2021/07/08 00:40:51;;;;;;;22.23;16.88;;;;;;;;;;5013301;28;20052;-64
2021/07/08 00:43:17;;;;;;;18.10;16.40;;;;;;;;;;5013323;28;20401;-63
2021/07/08 00:45:43;;;;;;;18.75;16.92;;;;;;;;;;5012976;28;20120;-63
2021/07/08 00:48:09;;;;;;;19.00;16.77;;;;;;;;;;5012907;28;20037;-63
2021/07/08 00:50:42;;;;;;;18.85;16.95;;;;;;;;;;5013142;28;20018;-62
2021/07/08 00:53:08;;;;;;;18.88;16.98;;;;;;;;;;5013221;28;20026;-64
2021/07/08 00:55:34;;;;;;;19.65;17.70;;;;;;;;;;5012985;28;20041;-63
2021/07/08 00:58:00;;;;;;;19.23;17.38;;;;;;;;;;5013163;28;20029;-64
2021/07/08 01:00:28;;;;;;;18.98;17.05;;;;;;;;;;5013083;28;20029;-63
2021/07/08 01:02:55;;;;;;;19.15;17.15;;;;;;;;;;5011836;28;20026;-63
2021/07/08 01:05:22;;;;;;;19.10;17.20;;;;;;;;;;5012934;28;20018;-64
2021/07/08 01:07:49;;;;;;;18.88;16.95;;;;;;;;;;5013096;28;20024;-62
2021/07/08 01:10:15;;;;;;;18.17;16.48;;;;;;;;;;5012981;28;20109;-63
2021/07/08 01:12:42;;;;;;;18.85;16.85;;;;;;;;;;5012938;28;20014;-63
2021/07/08 01:15:09;;;;;;;18.80;17.00;;;;;;;;;;5012993;28;20030;-64
2021/07/08 01:17:35;;;;;;;19.10;17.20;;;;;;;;;;5012747;28;20018;-62
2021/07/08 01:20:01;;;;;;;17.95;16.25;;;;;;;;;;5012359;28;20077;-63
2021/07/08 01:22:27;;;;;;;18.52;16.65;;;;;;;;;;5012665;28;20026;-64
2021/07/08 01:24:54;;;;;;;19.05;17.20;;;;;;;;;;5012842;28;20050;-63
2021/07/08 01:27:20;;;;;;;18.73;16.83;;;;;;;;;;5012764;28;20383;-63
2021/07/08 01:29:46;;;;;;;20.40;18.17;;;;;;;;;;5012586;28;20077;-64
2021/07/08 01:32:12;;;;;;;18.23;16.33;;;;;;;;;;5012437;28;20113;-64
2021/07/08 01:34:38;;;;;;;18.73;16.67;;;;;;;;;;5012064;28;20037;-62
2021/07/08 01:37:04;;;;;;;19.85;17.85;;;;;;;;;;5012389;28;20491;-63
2021/07/08 01:39:30;;;;;;;19.15;17.10;;;;;;;;;;5012089;28;20112;-63
2021/07/08 01:41:56;;;;;;;19.20;17.23;;;;;;;;;;5012254;28;20022;-63
2021/07/08 01:44:23;;;;;;;19.45;17.67;;;;;;;;;;5012424;28;20041;-62
2021/07/08 01:46:49;;;;;;;18.80;16.90;;;;;;;;;;5012060;28;20097;-63
2021/07/08 01:49:15;;;;;;;19.33;17.42;;;;;;;;;;5011811;28;20022;-63
2021/07/08 01:51:42;;;;;;;19.65;17.63;;;;;;;;;;5011918;28;20037;-66
2021/07/08 01:54:08;;;;;;;23.02;18.10;;;;;;;;;;5012137;28;20022;-66
2021/07/08 01:56:34;;;;;;;20.52;16.98;;;;;;;;;;5011925;28;20022;-66
2021/07/08 01:59:01;;;;;;;19.33;17.25;;;;;;;;;;5012041;28;20022;-65
2021/07/08 02:01:27;;;;;;;19.02;16.55;;;;;;;;;;5012074;28;20025;-65
2021/07/08 02:03:53;;;;;;;19.67;17.75;;;;;;;;;;5012043;28;20021;-64
2021/07/08 02:06:20;;;;;;;19.50;17.48;;;;;;;;;;5011940;28;20033;-65
2021/07/08 02:08:46;;;;;;;18.65;16.85;;;589.20;1945.60;;;;;;5012006;28;20033;-65
2021/07/08 02:11:12;;;;;;;19.30;17.38;;;589.20;1945.60;;;;;;5012036;28;20030;-66
2021/07/08 02:13:39;;;;;;;18.80;17.10;;;589.10;1945.60;;;;;;5013502;28;20379;-65
2021/07/08 02:16:06;;;;;;;19.23;17.52;;;;;;;;;;5015906;28;20034;-64
2021/07/08 02:18:32;;;;;;;19.38;17.30;;;;;;;;;;5016032;28;20044;-65
2021/07/08 02:20:58;;;;;;;18.38;16.33;;;;;;;;;;5015400;28;20046;-65
2021/07/08 02:23:24;;;;;;;17.85;15.95;;;;;;;;;;5016020;28;20030;-65
2021/07/08 02:25:51;;;;;;;18.98;17.13;;;;;;;;;;5014978;28;20437;-66
2021/07/08 02:28:17;;;;;;;18.20;16.50;;;;;;;;;;5015801;28;20034;-65
2021/07/08 02:30:43;;;;;;;18.58;16.77;;;;;;;;;;5016026;28;20149;-66
2021/07/08 02:33:10;;;;;;;19.42;17.40;;;;;;;;;;5016045;28;20018;-64
2021/07/08 02:35:36;;;;;;;17.27;15.57;;;;;;;;;;5015558;28;20053;-68
2021/07/08 02:38:03;;;;;;;17.98;16.25;;;;;;;;;;5015761;28;20053;-62
2021/07/08 02:40:34;;;;;;;18.67;16.88;;;;;;;;;;5015831;28;20030;-64
2021/07/08 02:43:03;;;;;;;18.55;16.75;;;;;;;;;;5015579;28;20034;-64
2021/07/08 02:45:31;;;;;;;17.95;16.17;;;;;;;;;;5015714;28;20025;-63
2021/07/08 02:47:58;;;;;;;17.80;16.15;;;589.20;1945.60;;;;;;5015482;28;20033;-64
2021/07/08 02:50:26;;;;;;;18.60;16.38;;;589.00;1971.20;;;;;;5015295;28;20075;-64
2021/07/08 02:52:52;;;;;;;19.25;17.35;;;588.90;1971.20;;;;;;5015845;28;20369;-63
2021/07/08 02:55:19;;;;;;;18.05;16.27;;;;;;;;;;5015411;28;20036;-63
2021/07/08 02:57:48;;;;;;;19.17;16.17;;;;;;;;;;5015352;28;20050;-65
2021/07/08 03:00:20;;;;;;;19.63;16.80;;;589.00;1971.20;;;;;;5015346;28;20100;-65
2021/07/08 03:02:46;;;;;;;20.45;18.38;;;588.90;1971.20;;;;;;5015242;28;20026;-64
2021/07/08 03:05:12;;;;;;;18.17;16.20;;;;;;;;;;5015264;28;20030;-65
2021/07/08 03:07:39;;;;;;;17.38;15.70;;;;;;;;;;5015269;28;20018;-64
2021/07/08 03:10:06;;;;;;;18.83;16.85;;;;;;;;;;5015282;28;20029;-63
2021/07/08 03:12:32;;;;;;;19.42;16.23;;;;;;;;;;5015235;28;20056;-63
2021/07/08 03:14:58;;;;;;;18.65;16.75;;;;;;;;;;5015002;28;20088;-62
2021/07/08 03:17:24;;;;;;;18.27;16.45;;;;;;;;;;5015008;28;20029;-62
2021/07/08 03:19:50;;;;;;;17.85;16.02;;;;;;;;;;5014571;28;20050;-62
2021/07/08 03:22:16;;;;;;;18.10;16.17;;;;;;;;;;5014915;28;20566;-62
2021/07/08 03:24:42;;;;;;;16.77;15.07;;;589.20;1920.00;;;;;;5015067;28;20439;-62
2021/07/08 03:27:08;;;;;;;17.23;15.45;;;588.90;1971.20;;;;;;5014754;28;20025;-63
2021/07/08 03:29:34;;;;;;;22.45;16.23;;;588.90;1971.20;;;;;;5014670;28;20080;-62
2021/07/08 03:32:00;;;;;;;17.08;15.40;;;588.80;1971.20;;;;;;5014506;28;20094;-62
2021/07/08 03:34:26;;;;;;;18.17;16.40;;;;;;;;;;5014530;28;20030;-64
2021/07/08 03:36:52;;;;;;;17.60;15.80;;;;;;;;;;5014782;28;20486;-63
2021/07/08 03:39:18;;;;;;;17.02;15.23;;;;;;;;;;5014549;28;20104;-65
2021/07/08 03:41:44;;;;;;;17.55;15.75;;;;;;;;;;5014100;28;20596;-63
2021/07/08 03:44:10;;;;;;;18.38;16.38;;;;;;;;;;5014270;28;20108;-65
2021/07/08 03:46:36;;;;;;;17.85;16.08;;;;;;;;;;5014186;28;20022;-64
2021/07/08 03:49:03;;;;;;;20.15;16.15;;;;;;;;;;5013800;28;20493;-64
2021/07/08 03:51:29;;;;;;;18.35;16.35;;;;;;;;;;5013951;28;20205;-64
2021/07/08 03:53:55;;;;;;;18.58;16.63;;;;;;;;;;5014165;28;20385;-64
2021/07/08 03:56:21;;;;;;;17.58;15.95;;;;;;;;;;5012725;28;20030;-63
2021/07/08 03:58:47;;;;;;;19.08;15.57;;;;;;;;;;5013823;28;20026;-64
2021/07/08 04:01:14;;;;;;;18.10;16.23;;;;;;;;;;5013980;28;20030;-63
2021/07/08 04:03:40;;;;;;;16.80;15.05;;;;;;;;;;5013592;28;20022;-63
2021/07/08 04:06:05;;;;;;;17.65;15.95;;;589.20;1920.00;;;;;;5013965;28;20057;-63
2021/07/08 04:08:31;;;;;;;17.58;15.65;;;588.90;1945.60;;;;;;5013800;28;20460;-63
2021/07/08 04:10:57;;;;;;;17.98;16.05;;;588.90;1945.60;;;;;;5013810;28;20087;-63
2021/07/08 04:13:23;;;;;;;18.38;16.17;;;588.90;1945.60;;;;;;5013819;28;20085;-63
2021/07/08 04:15:50;;;;;;;16.38;14.68;;;588.80;1945.60;;;;;;5013457;28;20038;-64
2021/07/08 04:18:17;;;;;;;16.85;15.05;;;589.00;1945.60;;;;;;5013635;28;20037;-64
2021/07/08 04:20:44;;;;;;;19.08;15.02;;;;;;;;;;5013078;28;20045;-63
2021/07/08 04:23:10;;;;;;;16.85;14.65;;;;;;;;;;5013484;28;20042;-63
2021/07/08 04:25:37;;;;;;;18.90;14.95;;;;;;;;;;5013299;28;20021;-63
2021/07/08 04:28:04;;;;;;;17.75;15.95;;;;;;;;;;5013168;28;20429;-64
2021/07/08 04:30:30;;;;;;;16.52;14.68;;;;;;;;;;5013563;28;20041;-63
2021/07/08 04:32:56;;;;;;;17.25;14.75;;;;;;;;;;5013680;28;20022;-63
2021/07/08 04:35:46;;;;;;;23.20;16.27;;;;;;;;;;5013316;28;20034;-63
2021/07/08 04:38:13;;;;;;;20.60;18.27;;;;;;;;;;5013247;28;20022;-72
2021/07/08 04:40:40;;;;;;;16.98;15.20;;;;;;;;;;5013610;28;20025;-64
2021/07/08 04:43:08;;;;;;;22.60;14.95;;;;;;;;;;5013384;28;20523;-63
2021/07/08 04:45:34;;;;;;;16.63;14.65;;;;;;;;;;5013063;28;20036;-64
2021/07/08 04:48:01;;;;;;;17.77;15.52;;;;;;;;;;5012983;28;20100;-65
2021/07/08 04:50:27;;;;;;;17.30;13.45;;;;;;;;;;5013343;28;20477;-63
2021/07/08 04:52:54;;;;;;;18.30;15.20;;;;;;;;;;5013283;28;20026;-62
2021/07/08 04:55:21;;;;;;;17.08;15.38;;;614.40;1843.20;;;;;;5013174;28;20037;-63
2021/07/08 04:57:48;;;;;;;16.00;14.30;;;;;;;;;;5013213;28;20026;-64
2021/07/08 05:00:18;;;;;;;16.10;14.02;;;;;;;;;;5012838;28;20041;-64
2021/07/08 05:02:44;;;;;;;15.75;13.50;;;;;;;;;;5013137;28;20034;-67
2021/07/08 05:05:11;;;;;;;16.38;14.65;;;;;;;;;;5012889;28;20100;-66
2021/07/08 05:07:38;;;;;;;15.35;13.73;;;;;;;;;;5013044;28;20037;-64
2021/07/08 05:10:06;;;;;;;14.38;12.88;;;;;;;;;;5013103;28;20037;-67
2021/07/08 05:12:32;;;;;;;14.93;13.35;;;;;;;;;;5013351;28;20505;-64
2021/07/08 05:14:58;;;;;;;15.60;13.60;;;;;;;;;;5012593;28;20034;-65
2021/07/08 05:17:25;;;;;;;14.07;12.63;;;;;;;;;;5012651;28;20014;-66
2021/07/08 05:19:51;;;;;;;14.73;12.88;;;;;;;;;;5012180;28;20042;-64
2021/07/08 05:22:20;;;;;;;14.23;12.77;;;;;;;;;;5012615;28;20033;-65
2021/07/08 05:24:47;;;;;;;16.35;14.63;;;;;;;;;;5012612;28;20010;-61
2021/07/08 05:27:16;;;;;;;14.90;13.30;;;;;;;;;;5012640;28;20057;-62
2021/07/08 05:29:43;;;;;;;14.25;12.75;;;;;;;;;;5012448;28;20488;-62
2021/07/08 05:32:09;;;;;;;20.42;14.80;;;;;;;;;;5011370;28;20045;-62
2021/07/08 05:34:35;;;;;;;18.63;14.25;;;;;;;;;;5012365;28;20038;-62
2021/07/08 05:37:01;;;;;;;16.65;14.02;;;;;;;;;;5012814;28;20018;-62
2021/07/08 05:39:27;;;;;;;17.42;13.82;;;;;;;;;;5012494;28;20084;-61
2021/07/08 05:41:53;;;;;;;18.33;13.73;;;;;;;;;;5012480;28;20105;-62
2021/07/08 05:44:19;;;;;;;16.55;13.45;;;;;;;;;;5012364;28;20034;-62
2021/07/08 05:46:45;;;;;;;17.05;13.70;;;;;;;;;;5012213;28;20350;-64
2021/07/08 05:49:11;;;;;;;17.20;13.02;;;;;;;;;;5011411;28;20113;-63
2021/07/08 05:51:37;;;;;;;16.48;13.27;;;;;;;;;;5012155;28;20034;-65
2021/07/08 05:54:03;;;;;;;18.13;13.50;;;665.60;1638.40;;;;;;5012362;28;20032;-65
2021/07/08 05:56:29;;;;;;;15.38;12.98;;;665.70;1638.40;;;;;;5012373;28;20047;-66
2021/07/08 05:58:55;;;;;;;16.05;12.77;;;;;;;;;;4998506;28;20025;-64
2021/07/08 06:01:21;;;;;;;15.30;12.73;;;;;;;;;;5012461;28;20018;-64
2021/07/08 06:03:48;;;;;;;18.38;13.75;;;;;;;;;;5012098;28;20105;-66
2021/07/08 06:06:14;;;;;;;17.70;13.88;;;;;;;;;;5012372;28;20026;-62
2021/07/08 06:08:42;;;;;;;18.85;13.60;;;;;;;;;;5012293;28;20029;-63
2021/07/08 06:11:08;;;;;;;16.30;13.65;;;;;;;;;;5012275;28;20018;-64
2021/07/08 06:13:34;;;;;;;17.27;12.50;;;;;;;;;;5012110;28;20022;-64
2021/07/08 06:16:00;;;;;;;15.88;14.27;;;;;;;;;;5012001;28;20113;-64
2021/07/08 06:18:26;;;;;;;14.18;12.68;;;;;;;;;;5012091;28;20084;-64
2021/07/08 06:20:52;;;;;;;15.85;14.23;;;;;;;;;;5011845;28;20038;-65
2021/07/08 06:23:20;;;;;;;15.57;13.55;;;;;;;;;;5012166;28;20030;-64
2021/07/08 06:25:47;;;;;;;15.55;13.93;;;;;;;;;;5011964;28;20036;-64
2021/07/08 06:28:14;;;;;;;18.52;13.50;;;;;;;;;;5011960;28;20026;-63
2021/07/08 06:30:40;;;;;;;21.25;14.77;;;;;;;;;;5011979;28;20061;-64
2021/07/08 06:33:06;;;;;;;17.42;14.73;;;;;;;;;;5011793;28;20058;-64
2021/07/08 06:35:32;;;;;;;14.27;12.65;;;;;;;;;;5012042;28;20475;-64
2021/07/08 06:37:58;;;;;;;18.80;13.48;;;;;;;;;;5011891;28;20022;-63
2021/07/08 06:40:24;;;;;;;19.75;13.57;;;;;;;;;;5011995;28;20022;-63
2021/07/08 06:42:51;;;;;;;16.77;13.38;;;;;;;;;;5012072;28;20093;-66
2021/07/08 06:45:17;;;;;;;17.90;14.82;;;;;;;;;;5011775;28;20045;-65
2021/07/08 06:47:50;;;;;;;16.80;14.65;;;;;;;;;;5011743;28;20107;-65
2021/07/08 06:50:16;;;;;;;15.80;14.18;;;;;;;;;;5010414;28;20072;-64
2021/07/08 06:52:43;;;;;;;13.13;11.57;;;;;;;;;;5011921;28;20105;-66
2021/07/08 06:55:10;;;;;;;18.60;13.88;;;;;;;;;;5011643;28;20037;-63
2021/07/08 06:57:36;;;;;;;17.48;13.82;;;;;;;;;;5011793;28;20049;-65
2021/07/08 07:00:02;;;;;;;20.05;13.63;;;;;;;;;;5014080;28;20457;-63
2021/07/08 07:02:28;;;;;;;14.32;10.65;;;;;;;;;;5015273;28;20030;-65
2021/07/08 07:04:54;;;;;;;18.70;12.65;;;;;;;;;;5015409;28;20025;-63
2021/07/08 07:07:20;;;;;;;20.17;13.95;;;;;;;;;;5015066;28;20101;-63
2021/07/08 07:09:46;;;;;;;14.45;12.75;;;;;;;;;;5015321;28;20057;-64
2021/07/08 07:12:13;;;;;;;20.05;12.40;;;;;;;;;;5015105;28;20495;-64
2021/07/08 07:14:39;;;;;;;15.13;12.88;;;;;;;;;;5014899;28;20037;-64
2021/07/08 07:17:05;;;;;;;14.88;11.85;;;;;;;;;;5014938;28;20030;-64
2021/07/08 07:19:31;;;;;;;15.50;11.07;;;;;;;;;;5014724;28;20121;-65
2021/07/08 07:22:00;;;;;;;19.02;12.20;;;717.10;1408.00;;;;;;5015014;28;20484;-65
2021/07/08 07:24:26;;;;;;;20.70;12.75;;;;;;;;;;5001414;28;20113;-66
2021/07/08 07:26:52;;;;;;;16.02;11.70;;;;;;;;;;5014966;28;20022;-66
2021/07/08 07:29:18;;;;;;;18.88;10.55;;;;;;;;;;5014487;28;20014;-65
2021/07/08 07:31:44;;;;;;;20.10;11.32;;;;;;;;;;5014688;28;20030;-66
2021/07/08 07:34:12;;;;;;;23.02;12.25;;;;;;;;;;5014758;28;20026;-67
2021/07/08 07:36:38;;;;;;;12.93;11.13;;;;;;;;;;5014617;28;20030;-65
2021/07/08 07:39:04;;;;;;;19.10;10.95;;;;;;;;;;5014599;28;20018;-65
2021/07/08 07:41:30;;;;;;;12.60;9.68;;;;;;;;;;5014440;28;20496;-64
2021/07/08 07:43:56;;;;;;;17.15;10.90;;;;;;;;;;5014691;28;20013;-64
2021/07/08 07:46:22;;;;;;;15.25;11.10;;;;;;;;;;5013017;28;20026;-63
2021/07/08 07:48:50;;;;;;;13.95;10.85;;;;;;;;;;5014340;28;20022;-64
2021/07/08 07:51:16;;;;;;;21.30;11.60;;;;;;;;;;5014612;28;20093;-63
2021/07/08 07:53:42;;;;;;;17.70;11.52;;;;;;;;;;5013921;28;20022;-65
2021/07/08 07:56:08;;;;;;;14.27;11.60;;;;;;;;;;5014266;28;20523;-64
2021/07/08 07:58:34;;;;;;;19.67;11.35;;;;;;;;;;5014179;28;20014;-65
2021/07/08 08:01:01;;;;;;;20.15;11.25;;;;;;;;;;5014092;28;20037;-65
2021/07/08 08:03:27;;;;;;;15.85;10.95;;;;;;;;;;5014051;28;20038;-65
2021/07/08 08:08:38;;;;;;;14.55;10.80;;;;;;;;;;5014056;28;20384;-65
2021/07/08 08:11:04;;;;;;;17.33;10.93;;;;;;;;;;5013265;28;20022;-65
2021/07/08 08:13:32;;;;;;;14.45;10.63;;;;;;;;;;5013826;28;20030;-66
2021/07/08 08:15:58;;;;;;;16.30;11.43;;;;;;;;;;5014021;28;20116;-65
2021/07/08 08:18:25;;;;;;;15.95;10.82;;;;;;;;;;5013743;28;20068;-65
2021/07/08 08:20:51;;;;;;;17.50;10.18;;;;;;;;;;5013562;28;20058;-63
2021/07/08 08:23:18;;;;;;;14.90;10.77;;;;;;;;;;5013826;28;20105;-63
2021/07/08 08:25:44;;;;;;;16.35;11.60;;;;;;;;;;5013516;28;20080;-64
2021/07/08 08:28:10;;;;;;;11.25;9.90;;;;;;;;;;5013700;28;20032;-65
2021/07/08 08:30:36;;;;;;;13.50;10.73;;;;;;;;;;5013683;28;20395;-64
2021/07/08 08:33:03;;;;;;;17.92;11.82;;;;;;;;;;5013571;28;20091;-63
2021/07/08 08:35:29;;;;;;;18.95;11.65;;;;;;;;;;5013203;28;20034;-69
2021/07/08 08:37:55;;;;;;;18.30;10.40;;;;;;;;;;5013504;28;20105;-66
2021/07/08 08:40:22;;;;;;;15.07;10.70;;;;;;;;;;5013486;28;20428;-66
2021/07/08 08:42:48;;;;;;;15.13;10.32;;;;;;;;;;5013564;28;20014;-66
2021/07/08 08:45:17;;;;;;;15.35;8.80;;;;;;;;;;5013129;28;20057;-65
2021/07/08 08:47:57;;;;;;;13.60;9.13;;;;;;;;;;5013229;28;20014;-68
2021/07/08 08:50:27;;;;;;;13.07;10.65;;;;;;;;;;5013227;28;20089;-65
2021/07/08 08:52:53;;;;;;;10.38;8.98;;;;;;;;;;5013271;28;20030;-66
2021/07/08 08:55:19;;;;;;;15.93;9.82;;;794.40;1100.80;;;;;;4992213;28;20030;-65
2021/07/08 08:57:48;;;;;;;10.32;9.15;;;794.30;1100.80;;;;;;5010334;28;20028;-64
2021/07/08 09:00:25;;;;;;;12.20;9.80;;;794.20;1100.80;;;;;;5012717;28;20476;-66
2021/07/08 09:02:58;;;;;;;14.63;10.32;;;794.20;1152.00;;;;;;5012665;28;20024;-68
2021/07/08 09:05:24;;;;;;;12.57;10.80;;;794.20;1100.80;;;;;;5010844;28;20093;-67
2021/07/08 09:07:49;;;;;;;16.63;11.90;;;794.20;1049.60;;;;;;5012061;28;20104;-67
2021/07/08 09:10:15;;;;;;;13.65;11.55;;;;;;;;;;5011967;28;20022;-66
2021/07/08 09:12:41;;;;;;;13.75;11.80;;;794.50;1075.20;;;;;;5011807;28;20541;-69
2021/07/08 09:15:22;;;;;;;13.30;10.55;;;794.40;1100.80;;;;;;5011836;28;20077;-71
2021/07/08 09:17:48;;;;;;;17.88;11.88;;;819.20;1075.20;;;;;;5011917;28;20104;-69
2021/07/08 09:20:17;;;;;;;11.38;10.23;;;794.50;1075.20;;;;;;5012109;28;20465;-69
2021/07/08 09:22:46;;;;;;;220.25;161.20;;;819.40;1100.80;;;;;;5011531;28;20033;-77
2021/07/08 09:25:22;;;;;;;74.28;65.13;;;;;;;;;;5012199;28;20037;-73
2021/07/08 09:28:08;;;;;;;167.95;149.57;;;;;;;;;;5011661;28;20026;-75
2021/07/08 09:30:35;;;;;;;268.48;239.70;;;;;;;;;;5011324;28;20026;-72
2021/07/08 09:33:01;;;;;;;186.88;167.13;;;;;;;;;;5011725;28;20106;-72
2021/07/08 09:35:34;;;;;;;243.85;218.48;;;;;;;;;;5011762;28;20029;-68
2021/07/08 09:38:08;;;;;;;184.05;164.40;;;;;;;;;;5009206;28;20022;-73
2021/07/08 09:40:34;;;;;;;62.58;54.35;;;819.90;998.40;;;;;;5011720;28;20080;-72
2021/07/08 09:43:00;;;;;;;134.77;120.00;;;819.90;972.80;;;;;;5011576;28;20030;-72
2021/07/08 09:45:27;;;;;;;60.50;53.88;;;820.10;1049.60;;;;;;5011544;28;20049;-70
2021/07/08 09:48:09;;;;;;;18.85;17.05;;;819.80;1049.60;;;;;;5011559;28;20018;-71
2021/07/08 09:50:39;;;;;;;69.50;60.55;;;;;;;;;;5010873;28;20025;-72
2021/07/08 09:53:08;;;;;;;46.83;41.70;;;820.10;1049.60;;;;;;5011848;28;20056;-69
2021/07/08 09:58:56;;;;;;;37.28;33.05;;;820.10;1049.60;;;;;;4932457;29;20070;-68
2021/07/08 10:01:22;;;;;;;36.83;30.17;;;820.10;1049.60;;;;;;4925222;29;20490;-69
2021/07/08 10:03:49;;;;;;;32.13;28.70;;;820.10;1024.00;;;;;;4932425;29;20494;-69
2021/07/08 10:06:16;;;;;;;16.50;14.70;;;845.00;998.40;;;;;;4932575;29;20036;-70
2021/07/08 10:08:43;;;;;;;37.53;29.75;;;;;;;;;;4932645;29;20478;-69
2021/07/08 10:11:12;;;;;;;22.77;20.33;;;;;;;;;;4932616;29;20103;-70
2021/07/08 10:13:39;;;;;;;26.50;23.70;;;;;;;;;;4932251;29;20035;-68
2021/07/08 10:16:05;;;;;;;22.33;17.52;;;;;;;;;;4932295;29;20052;-69
2021/07/08 10:18:32;;;;;;;16.40;14.52;;;;;;;;;;4932541;29;20561;-71
2021/07/08 10:20:59;;;;;;;24.85;16.33;;;;;;;;;;4931978;29;20059;-70
2021/07/08 10:23:26;;;;;;;10.52;9.45;;;;;;;;;;4938697;29;20044;-69
2021/07/08 10:25:53;;;;;;;18.67;14.98;;;;;;;;;;4932462;29;20360;-70
2021/07/08 10:28:21;;;;;;;14.35;12.82;;;;;;;;;;4932137;29;20114;-69
2021/07/08 10:30:50;;;;;;;15.48;11.07;;;;;;;;;;4932592;29;20115;-70
2021/07/08 10:33:19;;;;;;;13.55;11.07;;;;;;;;;;4932535;29;20023;-71
2021/07/08 10:35:46;;;;;;;15.55;11.98;;;;;;;;;;4975636;28;20400;-71
2021/07/08 10:38:27;;;;;;;13.43;10.02;;;;;;;;;;5015860;28;20379;-69
2021/07/08 10:40:54;;;;;;;13.82;10.43;;;;;;;;;;5015995;28;20103;-71
2021/07/08 10:43:32;;;;;;;13.35;10.98;;;;;;;;;;5015693;28;20018;-70
2021/07/08 10:46:02;;;;;;;14.20;11.68;;;;;;;;;;5015729;28;20551;-70
2021/07/08 10:48:38;;;;;;;12.50;10.98;;;;;;;;;;5015388;28;20068;-71
2021/07/08 10:51:06;;;;;;;14.98;11.00;;;;;;;;;;5015720;28;20041;-70
2021/07/08 10:53:41;;;;;;;12.27;10.98;;;;;;;;;;5015332;28;20383;-69
2021/07/08 10:56:12;;;;;;;14.98;12.30;;;;;;;;;;5014191;28;20030;-70
2021/07/08 10:58:46;;;;;;;10.15;9.20;;;;;;;;;;5015617;28;20041;-69
2021/07/08 11:01:21;;;;;;;10.77;9.68;;;;;;;;;;5013927;28;20614;-70
2021/07/08 11:03:48;;;;;;;11.57;10.40;;;;;;;;;;5015009;28;20076;-70
2021/07/08 11:06:14;;;;;;;11.18;8.55;;;;;;;;;;5015330;28;20018;-70
2021/07/08 11:08:47;;;;;;;15.20;9.43;;;;;;;;;;5015261;28;20559;-70
2021/07/08 11:11:36;;;;;;;17.35;10.38;;;;;;;;;;5015049;28;20407;-69
2021/07/08 11:14:11;;;;;;;16.10;9.40;;;;;;;;;;4935372;29;20046;-69
2021/07/08 11:16:46;;;;;;;14.45;9.75;;;;;;;;;;4935049;29;20040;-69
2021/07/08 11:19:32;;;;;;;11.68;9.70;;;;;;;;;;4934775;29;20036;-69
2021/07/08 11:22:04;;;;;;;11.55;9.63;;;;;;;;;;4935316;29;20047;-70
2021/07/08 11:24:30;;;;;;;13.57;9.60;;;;;;;;;;4935291;29;20034;-69
2021/07/08 11:27:06;;;;;;;13.48;9.23;;;;;;;;;;4935160;29;20044;-70
2021/07/08 11:29:39;;;;;;;12.88;8.73;;;;;;;;;;4935061;29;20028;-69
2021/07/08 11:32:24;;;;;;;9.77;8.82;;;;;;;;;;4935202;29;20044;-68
2021/07/08 11:34:50;;;;;;;8.68;7.78;;;;;;;;;;4934856;29;20114;-68
2021/07/08 11:37:21;;;;;;;8.10;7.18;;;;;;;;;;4934556;29;20046;-68
2021/07/08 11:39:48;;;;;;;14.73;9.77;;;;;;;;;;4934526;29;20063;-72
2021/07/08 11:42:14;;;;;;;8.32;7.53;;;871.00;793.60;;;;;;4934710;29;20032;-70
2021/07/08 11:44:42;;;;;;;14.20;9.15;;;871.00;844.80;;;;;;4934307;29;20044;-71
2021/07/08 11:47:08;;;;;;;14.98;8.40;;;870.90;844.80;;;;;;4933424;29;20028;-72
2021/07/08 11:49:34;;;;;;;13.50;10.23;;;870.90;870.40;;;;;;4934081;29;20032;-72
2021/07/08 11:52:15;;;;;;;11.38;9.00;;;870.70;870.40;;;;;;5006724;28;20132;-71
2021/07/08 11:54:57;;;;;;;11.80;8.75;;;870.70;896.00;;;;;;5014017;28;20037;-71
2021/07/08 11:57:22;;;;;;;10.98;8.30;;;870.70;870.40;;;;;;5014041;28;20032;-71
2021/07/08 11:59:49;;;;;;;11.05;9.27;;;870.70;870.40;;;;;;5013933;28;20105;-78
2021/07/08 12:02:50;;;;;;;12.05;6.70;;;870.80;870.40;;;;;;5013479;28;20049;-71
2021/07/08 12:05:17;;;;;;;11.52;10.25;;;870.90;870.40;;;;;;4934166;29;20036;-71
2021/07/08 12:07:49;;;;;;;16.75;14.88;;;870.90;870.40;;;;;;4933819;29;20031;-71
2021/07/08 12:10:23;;;;;;;14.88;13.27;;;870.90;844.80;;;;;;4934083;29;20032;-71
2021/07/08 12:12:52;;;;;;;8.82;8.02;;;870.70;870.40;;;;;;4934714;29;20140;-72
2021/07/08 12:15:20;;;;;;;45.97;41.10;;;871.00;819.20;;;;;;4933729;29;20042;-71
2021/07/08 12:17:50;;;;;;;65.95;58.92;;;871.10;870.40;;;;;;4933942;29;20023;-72
2021/07/08 12:20:16;;;;;;;80.68;72.15;;;;;;;;;;4933343;29;20047;-71
2021/07/08 12:23:03;;;;;;;81.25;69.95;;;870.80;870.40;;;;;;4933634;29;20043;-71
2021/07/08 12:25:30;;;;;;;92.88;82.68;;;870.80;870.40;;;;;;4933633;29;20081;-71
2021/07/08 12:27:57;;;;;;;17.45;15.63;;;870.70;870.40;;;;;;4933937;29;20359;-70
2021/07/08 12:30:28;;;;;;;74.53;66.70;;;871.00;793.60;;;;;;4934210;29;20039;-71
2021/07/08 12:33:10;;;;;;;;;;;870.80;870.40;;;;;;4933727;29;20540;-70
2021/07/08 12:35:44;;;;;;;50.65;45.17;;;870.80;870.40;;;;;;4932146;29;19921;-71
2021/07/08 12:38:12;;;;;;;71.95;64.13;;;870.70;870.40;;;;;;4939040;28;20027;-70
2021/07/08 12:40:39;;;;;;;31.65;28.35;;;870.80;870.40;;;;;;5013005;28;20075;-70
2021/07/08 12:43:07;;;;;;;50.92;45.65;;;870.70;870.40;;;;;;5013244;28;20106;-71
2021/07/08 12:45:35;;;;;;;43.80;39.28;;;870.70;870.40;;;;;;5013273;28;20065;-70
2021/07/08 12:48:02;;;;;;;36.33;32.47;;;870.90;844.80;;;;;;4990361;28;20036;-70
2021/07/08 12:50:39;;;;;;;47.03;42.22;;;870.90;870.40;;;;;;5013232;28;20101;-71
2021/07/08 12:53:07;;;;;;;83.65;74.93;;;871.10;844.80;;;;;;4995454;28;20026;-71
2021/07/08 12:55:58;;;;;;;89.53;79.88;;;870.80;844.80;;;;;;5013183;28;20057;-71
2021/07/08 12:58:25;;;;;;;;;;;870.80;870.40;;;;;;5009035;28;20506;-70
2021/07/08 13:00:54;;;;;;;83.65;74.80;;;870.70;896.00;;;;;;5013171;28;19916;-71
2021/07/08 13:03:21;;;;;;;81.75;73.18;;;;;;;;;;5007280;28;20022;-71
2021/07/08 13:05:47;;;;;;;82.38;73.88;;;;;;;;;;5011049;28;20030;-72
2021/07/08 13:08:16;;;;;;;77.82;69.82;;;;;;;;;;5012422;28;20018;-72
2021/07/08 13:10:43;;;;;;;22.33;19.95;;;;;;;;;;5012584;28;20030;-72
2021/07/08 13:13:10;;;;;;;38.88;33.53;;;;;;;;;;5012469;28;20029;-72
2021/07/08 13:15:42;;;;;;;43.05;36.70;;;;;;;;;;5011743;28;20038;-71
2021/07/08 13:18:09;;;;;;;30.48;25.65;;;;;;;;;;5012040;28;20435;-71
2021/07/08 13:20:36;;;;;;;34.70;31.02;;;;;;;;;;5011984;28;20037;-71
2021/07/08 13:23:13;;;;;;;28.33;23.20;;;;;;;;;;5012545;28;20036;-71
2021/07/08 13:25:39;;;;;;;19.83;16.98;;;;;;;;;;5011955;28;20033;-71
2021/07/08 13:28:17;;;;;;;27.65;24.65;;;;;;;;;;5011874;28;20050;-73
2021/07/08 13:30:45;;;;;;;40.95;37.00;;;;;;;;;;5012329;28;20022;-71
2021/07/08 13:33:12;;;;;;;46.30;41.30;;;;;;;;;;5011915;28;20022;-71
2021/07/08 13:35:43;;;;;;;57.42;51.42;;;;;;;;;;5011602;28;20033;-72
2021/07/08 13:38:10;;;;;;;59.08;52.80;;;;;;;;;;5011662;28;20022;-74
2021/07/08 13:40:36;;;;;;;38.13;34.20;;;;;;;;;;5012429;28;20376;-71
2021/07/08 13:43:12;;;;;;;77.03;68.72;;;;;;;;;;5011569;28;20025;-72
2021/07/08 13:45:39;;;;;;;83.72;74.72;;;;;;;;;;5011357;28;20383;-71
2021/07/08 13:48:15;;;;;;;67.32;60.25;;;;;;;;;;5011823;28;20015;-71
2021/07/08 13:50:42;;;;;;;92.78;82.88;;;;;;;;;;5012176;28;20060;-71
2021/07/08 13:53:08;;;;;;;41.97;37.42;;;;;;;;;;5011944;28;20026;-71
2021/07/08 13:55:34;;;;;;;121.70;108.60;;;;;;;;;;5011849;28;20058;-72
2021/07/08 13:58:00;;;;;;;65.93;58.90;;;;;;;;;;5011948;28;20510;-72